Date,TemperatureHighF,TemperatureAvgF,TemperatureLowF,DewpointHighF,DewpointAvgF,DewpointLowF,HumidityHigh,HumidityAvg,HumidityLow,PressureMaxIn,PressureMinIn,WindSpeedMaxMPH,WindSpeedAvgMPH,GustSpeedMaxMPH,PrecipitationSumIn
2013-2-1,11.7,2.4,-4.5,11.5,-3.5,-10.7,99,76,65,29.50,29.27,12,5,19,0.00
2013-2-2,20.6,11.9,3.4,20.6,9.2,1.1,100,89,69,29.27,29.14,10,2,16,0.00
2013-2-3,19.6,15.3,8.1,19.1,12.4,6.2,100,89,70,29.20,29.09,12,3,18,0.00
2013-2-4,20.9,16.7,3.4,20.0,14.7,-0.4,100,92,78,29.14,29.02,9,2,15,0.00
2013-2-5,29.3,20.3,4.2,29.1,19.1,1.1,100,95,82,29.25,28.95,8,2,13,0.00
2013-2-6,34.6,25.1,7.3,34.6,23.1,6.4,100,92,77,29.37,29.21,8,2,11,0.17
2013-2-7,33.5,31.8,24.1,33.5,31.8,24.1,100,100,100,29.23,29.03,8,2,10,0.66
2013-2-8,24.1,20.3,11.5,23.9,20.0,11.5,100,99,93,29.54,29.19,9,2,12,0.00
2013-2-9,30.0,25.7,18.8,29.7,25.5,18.8,100,99,94,29.54,29.20,12,3,18,0.00
2013-2-10,42.7,35.7,22.1,42.7,35.5,22.1,100,99,86,29.21,28.60,14,5,24,0.10
2013-2-11,38.3,30.3,25.1,36.6,27.8,22.0,100,90,81,29.19,28.64,29,12,36,0.00
2013-2-12,30.2,24.7,21.3,25.7,22.6,20.6,100,92,81,29.26,29.05,14,4,17,0.00
2013-2-13,39.0,30.8,18.5,35.9,30.1,18.5,100,98,85,29.04,28.86,8,1,12,0.00
2013-2-14,38.0,34.7,30.7,36.0,31.7,24.8,100,89,66,29.15,28.77,16,4,19,0.01
2013-2-15,30.7,23.1,15.3,29.7,13.7,7.4,98,68,47,29.35,29.14,9,3,17,0.00
2013-2-16,17.5,13.1,8.2,8.7,4.8,2.0,81,69,53,29.35,29.28,9,2,14,0.00
2013-2-17,29.0,19.0,4.9,23.8,11.7,2.2,95,74,52,29.35,29.07,9,3,13,0.00
2013-2-18,50.8,35.0,19.9,44.6,31.8,19.9,100,89,70,29.08,28.61,18,5,22,0.32
2013-2-19,19.7,11.1,6.8,19.6,8.0,1.1,100,87,77,29.36,28.78,20,8,23,0.00
2013-2-20,18.5,10.9,4.2,11.9,5.7,-1.4,97,79,71,29.53,29.36,9,2,13,0.00
2013-2-21,26.5,20.0,10.8,26.2,18.8,9.1,100,95,89,29.54,29.10,15,4,23,0.00
2013-2-22,30.9,26.5,23.6,30.9,26.5,23.6,100,100,100,29.10,28.94,11,4,14,0.04
2013-2-23,26.6,22.2,13.5,25.5,20.0,12.1,100,92,77,29.12,29.04,12,4,16,0.00
2013-2-24,35.2,20.8,8.4,23.8,17.4,7.8,100,88,60,29.29,29.12,4,1,7,0.09
2013-2-25,39.2,29.1,16.3,30.9,24.6,16.3,100,85,60,29.32,29.11,7,1,12,0.06
2013-2-26,34.5,32.7,30.2,32.2,30.1,27.1,100,90,75,29.11,28.74,19,9,27,0.00
2013-2-27,32.4,30.4,28.2,32.2,30.4,28.2,100,100,100,28.93,28.74,12,4,13,0.08
2013-2-28,33.6,31.4,25.7,33.3,30.0,22.9,100,95,81,29.27,28.93,11,4,14,0.06